createdAt,value
2019-04-30T00:00:38.462Z,23.40
2019-04-30T00:01:48.514Z,21.55
2019-04-30T00:02:51.860Z,23.40
2019-04-30T00:04:05.781Z,24.80
2019-04-30T00:05:14.563Z,23.20
2019-04-30T00:06:16.060Z,23.43
2019-04-30T00:07:20.298Z,22.93
2019-04-30T00:08:25.692Z,24.70
2019-04-30T00:09:31.109Z,23.38
2019-04-30T00:10:41.244Z,23.87
2019-04-30T00:11:42.088Z,25.15
2019-04-30T00:12:46.911Z,25.25
2019-04-30T00:13:55.371Z,25.82
2019-04-30T00:14:57.003Z,24.82
2019-04-30T00:16:02.875Z,25.15
2019-04-30T00:17:10.742Z,26.33
2019-04-30T00:18:12.941Z,26.10
2019-04-30T00:19:19.657Z,27.67
2019-04-30T00:20:25.521Z,26.53
2019-04-30T00:21:29.170Z,25.85
2019-04-30T00:22:34.520Z,27.98
2019-04-30T00:23:39.572Z,26.93
2019-04-30T00:24:46.826Z,29.32
2019-04-30T00:25:49.798Z,28.30
2019-04-30T00:26:55.155Z,27.07
2019-04-30T00:28:04.291Z,31.33
2019-04-30T00:29:06.032Z,26.27
2019-04-30T00:30:10.216Z,26.57
2019-04-30T00:31:17.379Z,28.85
2019-04-30T00:32:20.465Z,27.80
2019-04-30T00:33:25.648Z,26.70
2019-04-30T00:34:34.903Z,24.80
2019-04-30T00:35:36.712Z,26.60
2019-04-30T00:36:40.899Z,26.25
2019-04-30T00:37:47.413Z,27.10
2019-04-30T00:38:51.197Z,28.65
2019-04-30T00:39:55.639Z,28.83
2019-04-30T00:41:01.862Z,28.95
2019-04-30T00:42:05.814Z,27.02
2019-04-30T00:43:10.318Z,25.73
2019-04-30T00:44:15.128Z,25.20
2019-04-30T00:45:20.505Z,25.50
2019-04-30T00:46:29.104Z,29.47
2019-04-30T00:47:30.652Z,26.62
2019-04-30T00:48:35.833Z,29.37
2019-04-30T00:49:40.181Z,28.27
2019-04-30T00:50:45.765Z,30.12
2019-04-30T00:51:54.684Z,27.62
2019-04-30T00:52:57.878Z,29.70
2019-04-30T00:54:02.013Z,27.87
2019-04-30T00:55:09.188Z,26.35
2019-04-30T00:56:15.652Z,28.97
2019-04-30T00:57:19.404Z,29.72
2019-04-30T00:58:25.853Z,30.77
2019-04-30T00:59:30.613Z,25.62
2019-04-30T01:00:37.147Z,27.73
2019-04-30T01:01:56.324Z,29.48
2019-04-30T01:03:05.891Z,30.95
2019-04-30T01:04:12.746Z,30.08
2019-04-30T01:05:21.193Z,29.47
2019-04-30T01:06:28.616Z,26.68
2019-04-30T01:07:32.490Z,31.62
2019-04-30T01:08:36.741Z,28.95
2019-04-30T01:09:46.520Z,31.05
2019-04-30T01:10:46.871Z,28.70
2019-04-30T01:11:51.052Z,29.95
2019-04-30T01:12:59.854Z,31.02
2019-04-30T01:14:01.193Z,31.80
2019-04-30T01:15:10.343Z,29.92
2019-04-30T01:16:12.062Z,28.27
2019-04-30T01:17:16.282Z,27.87
2019-04-30T01:18:23.580Z,30.68
2019-04-30T01:19:30.116Z,31.57
2019-04-30T01:20:32.984Z,30.02
2019-04-30T01:21:40.199Z,31.75
2019-04-30T01:22:43.212Z,29.55
2019-04-30T01:23:51.817Z,31.37
2019-04-30T01:24:53.354Z,31.87
2019-04-30T01:25:58.546Z,28.98
2019-04-30T01:27:06.707Z,30.48
2019-04-30T01:28:10.871Z,28.63
2019-04-30T01:29:15.175Z,32.10
2019-04-30T01:30:22.709Z,32.20
2019-04-30T01:31:25.716Z,30.77
2019-04-30T01:32:30.176Z,32.38
2019-04-30T01:33:35.706Z,30.45
2019-04-30T01:34:44.268Z,29.67
2019-04-30T01:35:48.793Z,31.12
2019-04-30T01:36:53.073Z,31.00
2019-04-30T01:37:57.373Z,30.20
2019-04-30T01:39:02.206Z,30.68
2019-04-30T01:40:13.673Z,32.38
2019-04-30T01:41:13.928Z,32.27
2019-04-30T01:42:18.545Z,28.93
2019-04-30T01:43:30.574Z,30.83
2019-04-30T01:44:29.511Z,31.12
2019-04-30T01:45:33.773Z,29.57
2019-04-30T01:46:39.080Z,29.75
2019-04-30T01:47:43.252Z,31.07
2019-04-30T01:48:48.592Z,31.85
2019-04-30T01:49:55.910Z,30.65
2019-04-30T01:51:01.151Z,29.95
2019-04-30T01:52:05.362Z,29.05
2019-04-30T01:53:13.044Z,30.45
2019-04-30T01:54:20.817Z,33.37
2019-04-30T01:55:24.397Z,32.50
2019-04-30T01:56:30.220Z,31.30
2019-04-30T01:57:45.082Z,31.27
2019-04-30T01:58:59.907Z,30.25
2019-04-30T02:00:16.744Z,34.92
2019-04-30T02:01:22.629Z,33.63
2019-04-30T02:02:28.667Z,31.80
2019-04-30T02:03:33.120Z,30.32
2019-04-30T02:04:39.334Z,33.65
2019-04-30T02:05:43.273Z,36.53
2019-04-30T02:06:49.374Z,33.90
2019-04-30T02:07:53.742Z,34.33
2019-04-30T02:08:59.349Z,32.20
2019-04-30T02:10:05.105Z,34.60
2019-04-30T02:11:09.291Z,31.53
2019-04-30T02:12:13.498Z,30.47
2019-04-30T02:13:18.880Z,35.07
2019-04-30T02:14:23.401Z,31.10
2019-04-30T02:15:29.189Z,30.57
2019-04-30T02:16:33.540Z,32.35
2019-04-30T02:17:38.833Z,36.40
2019-04-30T02:18:43.187Z,35.50
2019-04-30T02:19:54.771Z,31.42
2019-04-30T02:20:53.342Z,31.15
2019-04-30T02:21:58.567Z,31.40
2019-04-30T02:23:02.752Z,30.52
2019-04-30T02:24:08.939Z,32.90
2019-04-30T02:25:14.615Z,31.60
2019-04-30T02:26:18.881Z,34.75
2019-04-30T02:27:23.166Z,32.07
2019-04-30T02:28:28.994Z,31.57
2019-04-30T02:29:33.579Z,31.15
2019-04-30T02:30:40.458Z,30.05
2019-04-30T02:31:44.668Z,32.08
2019-04-30T02:32:52.266Z,34.92
2019-04-30T02:33:56.584Z,30.32
2019-04-30T02:35:11.814Z,32.08
2019-04-30T02:36:24.218Z,32.50
2019-04-30T02:37:30.242Z,34.35
2019-04-30T02:38:36.130Z,32.33
2019-04-30T02:39:40.516Z,30.27
2019-04-30T02:40:45.218Z,29.12
2019-04-30T02:41:50.654Z,31.25
2019-04-30T02:42:57.871Z,32.58
2019-04-30T02:44:00.966Z,32.55
2019-04-30T02:45:10.130Z,32.78
2019-04-30T02:46:13.138Z,32.53
2019-04-30T02:47:20.106Z,32.67
2019-04-30T02:48:23.308Z,30.53
2019-04-30T02:49:30.320Z,29.95
2019-04-30T02:50:33.763Z,33.63
2019-04-30T02:51:40.005Z,33.90
2019-04-30T02:52:44.034Z,30.75
2019-04-30T02:54:00.560Z,34.25
2019-04-30T02:55:05.042Z,32.67
2019-04-30T02:56:09.971Z,33.38
2019-04-30T02:57:14.261Z,33.13
2019-04-30T02:58:21.008Z,35.37
2019-04-30T02:59:24.669Z,31.57
2019-04-30T03:00:32.549Z,32.88
2019-04-30T03:01:34.807Z,31.65
2019-04-30T03:02:39.598Z,32.98
2019-04-30T03:03:43.803Z,32.23
2019-04-30T03:04:50.254Z,34.33
2019-04-30T03:05:53.997Z,32.95
2019-04-30T03:06:59.884Z,33.97
2019-04-30T03:08:05.032Z,32.14
2019-04-30T03:09:10.291Z,32.25
2019-04-30T03:10:15.378Z,31.27
2019-04-30T03:11:20.654Z,33.60
2019-04-30T03:12:25.327Z,35.33
2019-04-30T03:13:30.580Z,35.33
2019-04-30T03:14:35.847Z,33.95
2019-04-30T03:15:40.148Z,35.30
2019-04-30T03:16:52.735Z,35.65
2019-04-30T03:18:00.621Z,32.88
2019-04-30T03:19:24.691Z,31.90
2019-04-30T03:20:36.764Z,37.03
2019-04-30T03:22:00.148Z,31.57
2019-04-30T03:23:04.662Z,34.40
2019-04-30T03:24:10.752Z,35.38
2019-04-30T03:25:15.294Z,34.13
2019-04-30T03:26:20.085Z,39.73
2019-04-30T03:27:25.481Z,33.63
2019-04-30T03:28:30.222Z,34.00
2019-04-30T03:29:34.598Z,32.58
2019-04-30T03:30:41.789Z,34.85
2019-04-30T03:31:45.777Z,33.88
2019-04-30T03:32:56.571Z,31.57
2019-04-30T03:34:01.561Z,32.53
2019-04-30T03:35:05.075Z,32.06
2019-04-30T03:36:12.447Z,37.35
2019-04-30T03:37:15.249Z,32.77
2019-04-30T03:38:20.428Z,31.10
2019-04-30T03:39:29.701Z,31.45
2019-04-30T03:40:50.202Z,31.47
2019-04-30T03:41:59.531Z,30.02
2019-04-30T03:43:09.950Z,33.58
2019-04-30T03:44:21.572Z,32.00
2019-04-30T03:45:20.896Z,29.33
2019-04-30T03:46:25.173Z,30.25
2019-04-30T03:47:29.982Z,31.57
2019-04-30T03:48:34.479Z,31.17
2019-04-30T03:49:40.189Z,28.27
2019-04-30T03:50:53.232Z,30.95
2019-04-30T03:51:51.657Z,32.80
2019-04-30T03:52:56.036Z,32.23
2019-04-30T03:54:00.290Z,34.73
2019-04-30T03:55:06.291Z,33.83
2019-04-30T03:56:10.470Z,30.83
2019-04-30T03:57:14.718Z,29.97
2019-04-30T03:58:21.294Z,33.50
2019-04-30T03:59:24.876Z,31.45
2019-04-30T04:00:46.843Z,31.33
2019-04-30T04:01:53.742Z,29.70
2019-04-30T04:02:59.938Z,31.70
2019-04-30T04:04:15.271Z,31.64
2019-04-30T04:05:23.989Z,31.60
2019-04-30T04:06:32.777Z,31.48
2019-04-30T04:07:59.254Z,30.52
2019-04-30T04:09:10.118Z,35.03
2019-04-30T04:10:23.663Z,34.00
2019-04-30T04:11:29.933Z,31.87
2019-04-30T04:12:34.218Z,32.25
2019-04-30T04:13:40.023Z,30.12
2019-04-30T04:14:44.515Z,31.35
2019-04-30T04:15:49.989Z,31.17
2019-04-30T04:16:54.255Z,30.23
2019-04-30T04:18:00.329Z,30.10
2019-04-30T04:19:04.474Z,32.23
2019-04-30T04:20:10.744Z,32.60
2019-04-30T04:21:16.890Z,30.87
2019-04-30T04:22:21.034Z,28.60
2019-04-30T04:23:25.377Z,30.48
2019-04-30T04:24:30.211Z,32.25
2019-04-30T04:25:34.665Z,32.03
2019-04-30T04:26:43.345Z,30.45
2019-04-30T04:27:45.178Z,28.80
2019-04-30T04:28:49.838Z,32.10
2019-04-30T04:29:54.264Z,28.75
2019-04-30T04:31:00.155Z,31.95
2019-04-30T04:32:04.758Z,36.60
2019-04-30T04:33:10.185Z,29.32
2019-04-30T04:34:14.753Z,32.55
2019-04-30T04:35:19.726Z,30.77
2019-04-30T04:36:24.232Z,31.75
2019-04-30T04:37:30.218Z,30.68
2019-04-30T04:38:34.474Z,29.87
2019-04-30T04:39:38.973Z,30.10
2019-04-30T04:40:44.674Z,30.50
2019-04-30T04:41:50.370Z,29.80
2019-04-30T04:42:54.764Z,34.63
2019-04-30T04:44:00.210Z,31.27
2019-04-30T04:45:05.302Z,32.93
2019-04-30T04:46:09.545Z,35.53
2019-04-30T04:47:16.131Z,30.67
2019-04-30T04:48:23.046Z,31.60
2019-04-30T04:49:25.896Z,31.10
2019-04-30T04:50:30.527Z,31.45
2019-04-30T04:51:39.585Z,29.20
2019-04-30T04:52:41.651Z,30.97
2019-04-30T04:53:45.839Z,32.35
2019-04-30T04:54:50.990Z,33.60
2019-04-30T04:55:55.435Z,29.27
2019-04-30T04:57:13.222Z,32.90
2019-04-30T04:58:05.633Z,32.45
2019-04-30T04:59:10.368Z,32.00
2019-04-30T05:00:14.809Z,30.67
2019-04-30T05:01:20.590Z,33.63
2019-04-30T05:02:32.343Z,30.20
2019-04-30T05:03:39.916Z,33.80
2019-04-30T05:04:44.277Z,31.82
2019-04-30T05:05:49.968Z,30.82
2019-04-30T05:06:54.712Z,29.95
2019-04-30T05:07:58.891Z,34.30
2019-04-30T05:09:03.217Z,33.00
2019-04-30T05:10:09.202Z,30.05
2019-04-30T05:11:13.467Z,32.73
2019-04-30T05:12:18.571Z,31.37
2019-04-30T05:13:22.868Z,31.70
2019-04-30T05:14:28.808Z,30.77
2019-04-30T05:15:33.152Z,32.90
2019-04-30T05:16:38.885Z,30.68
2019-04-30T05:17:49.442Z,33.63
2019-04-30T05:18:53.738Z,31.62
2019-04-30T05:19:58.684Z,34.53
2019-04-30T05:21:03.166Z,31.85
2019-04-30T05:22:09.221Z,29.65
2019-04-30T05:23:13.799Z,33.93
2019-04-30T05:24:19.128Z,33.23
2019-04-30T05:25:23.449Z,32.07
2019-04-30T05:26:28.682Z,30.08
2019-04-30T05:27:33.297Z,29.48
2019-04-30T05:28:39.322Z,31.90
2019-04-30T05:29:43.649Z,29.75
2019-04-30T05:30:49.420Z,29.37
2019-04-30T05:31:53.752Z,31.15
2019-04-30T05:32:58.887Z,34.18
2019-04-30T05:34:03.139Z,34.75
2019-04-30T05:35:07.323Z,30.82
2019-04-30T05:36:11.517Z,34.80
2019-04-30T05:37:15.777Z,34.67
2019-04-30T05:38:19.976Z,28.27
2019-04-30T05:39:24.226Z,33.33
2019-04-30T05:40:28.794Z,31.75
2019-04-30T05:41:33.080Z,28.60
2019-04-30T05:42:38.775Z,33.00
2019-04-30T05:43:43.177Z,30.95
2019-04-30T05:44:49.536Z,29.55
2019-04-30T05:45:53.454Z,27.30
2019-04-30T05:46:59.220Z,33.38
2019-04-30T05:48:04.566Z,32.25
2019-04-30T05:49:09.082Z,30.92
2019-04-30T05:50:13.281Z,31.50
2019-04-30T05:51:19.372Z,28.27
2019-04-30T05:52:23.351Z,30.88
2019-04-30T05:53:28.705Z,29.67
2019-04-30T05:54:33.110Z,33.48
2019-04-30T05:55:39.381Z,31.93
2019-04-30T05:56:43.569Z,30.17
2019-04-30T05:57:56.037Z,30.10
2019-04-30T05:58:53.631Z,28.35
2019-04-30T05:59:58.559Z,28.30
2019-04-30T06:01:02.931Z,27.73
2019-04-30T06:02:08.833Z,32.80
2019-04-30T06:03:24.961Z,28.97
2019-04-30T06:04:19.420Z,28.13
2019-04-30T06:05:23.902Z,30.52
2019-04-30T06:06:29.038Z,29.55
2019-04-30T06:07:33.326Z,32.63
2019-04-30T06:08:42.084Z,33.75
2019-04-30T06:09:48.530Z,29.70
2019-04-30T06:10:55.514Z,30.32
2019-04-30T06:12:12.867Z,29.18
2019-04-30T06:13:28.742Z,30.47
2019-04-30T06:14:49.895Z,30.43
2019-04-30T06:17:11.401Z,30.20
2019-04-30T06:18:15.791Z,30.52
2019-04-30T06:19:19.977Z,27.53
2019-04-30T06:20:24.165Z,25.53
2019-04-30T06:21:29.467Z,28.98
2019-04-30T06:22:33.857Z,29.57
2019-04-30T06:23:39.299Z,26.87
2019-04-30T06:24:43.566Z,26.77
2019-04-30T06:25:57.265Z,28.35
2019-04-30T06:26:55.081Z,29.10
2019-04-30T06:27:59.273Z,26.35
2019-04-30T06:29:04.527Z,28.68
2019-04-30T06:30:09.671Z,28.12
2019-04-30T06:31:14.976Z,29.37
2019-04-30T06:32:19.230Z,30.67
2019-04-30T06:33:23.431Z,28.73
2019-04-30T06:34:29.406Z,28.85
2019-04-30T06:35:33.745Z,26.37
2019-04-30T06:36:39.469Z,27.25
2019-04-30T06:37:44.000Z,29.50
2019-04-30T06:38:48.941Z,27.93
2019-04-30T06:39:53.391Z,27.73
2019-04-30T06:40:58.828Z,28.00
2019-04-30T06:42:06.765Z,27.27
2019-04-30T06:43:09.295Z,31.17
2019-04-30T06:44:13.631Z,26.27
2019-04-30T06:45:19.150Z,29.90
2019-04-30T06:46:23.476Z,26.67
2019-04-30T06:47:33.119Z,27.95
2019-04-30T06:48:33.647Z,29.42
2019-04-30T06:49:39.323Z,30.82
2019-04-30T06:50:44.010Z,29.12
2019-04-30T06:51:49.198Z,27.25
2019-04-30T06:52:58.402Z,26.05
2019-04-30T06:53:59.529Z,26.82
2019-04-30T06:55:04.346Z,27.25
2019-04-30T06:56:09.978Z,26.55
2019-04-30T06:57:14.168Z,27.00
2019-04-30T06:58:20.500Z,27.00
2019-04-30T06:59:24.286Z,27.60
2019-04-30T07:00:40.076Z,25.70
2019-04-30T07:01:44.217Z,26.45
2019-04-30T07:02:49.445Z,28.07
2019-04-30T07:03:55.625Z,26.95
2019-04-30T07:04:59.881Z,25.92
2019-04-30T07:06:04.533Z,26.55
2019-04-30T07:07:09.285Z,26.77
2019-04-30T07:08:39.637Z,27.27
2019-04-30T07:09:51.493Z,28.00
2019-04-30T07:10:55.367Z,29.02
2019-04-30T07:12:09.042Z,28.92
2019-04-30T07:13:15.006Z,28.90
2019-04-30T07:14:24.989Z,24.12
2019-04-30T07:15:29.674Z,29.20
2019-04-30T07:16:34.273Z,26.50
2019-04-30T07:17:40.524Z,26.05
2019-04-30T07:18:44.536Z,25.52
2019-04-30T07:19:54.302Z,23.60
2019-04-30T07:20:54.710Z,25.48
2019-04-30T07:21:59.432Z,25.02
2019-04-30T07:23:04.876Z,28.05
2019-04-30T07:24:09.415Z,26.62
2019-04-30T07:25:13.724Z,28.27
2019-04-30T07:26:22.746Z,28.80
2019-04-30T07:27:24.369Z,28.73
2019-04-30T07:28:43.729Z,32.23
2019-04-30T07:29:34.876Z,27.75
2019-04-30T07:30:39.614Z,30.55
2019-04-30T07:31:43.939Z,30.02
2019-04-30T07:32:48.987Z,28.73
2019-04-30T07:33:54.105Z,27.22
2019-04-30T07:34:59.572Z,26.75
2019-04-30T07:36:03.893Z,27.40
2019-04-30T07:37:14.477Z,29.37
2019-04-30T07:38:14.047Z,32.57
2019-04-30T07:39:19.248Z,27.63
2019-04-30T07:40:23.829Z,28.65
2019-04-30T07:41:30.811Z,30.48
2019-04-30T07:42:38.187Z,26.42
2019-04-30T07:43:39.940Z,27.32
2019-04-30T07:44:44.199Z,26.93
2019-04-30T07:45:49.603Z,28.83
2019-04-30T07:46:55.022Z,25.65
2019-04-30T07:47:59.498Z,26.10
2019-04-30T07:49:03.637Z,27.45
2019-04-30T07:50:10.289Z,26.15
2019-04-30T07:51:14.417Z,26.00
2019-04-30T07:52:21.642Z,24.15
2019-04-30T07:53:24.817Z,26.40
2019-04-30T07:54:30.062Z,29.18
2019-04-30T07:55:34.333Z,28.77
2019-04-30T07:56:41.501Z,30.00
2019-04-30T07:57:44.595Z,26.68
2019-04-30T07:58:50.476Z,28.57
2019-04-30T07:59:54.813Z,25.70
2019-04-30T08:00:59.383Z,28.17
2019-04-30T08:02:10.875Z,27.95
2019-04-30T08:03:24.062Z,28.17
2019-04-30T08:04:35.678Z,28.83
2019-04-30T08:05:41.633Z,28.87
2019-04-30T08:06:45.963Z,29.82
2019-04-30T08:07:51.496Z,31.25
2019-04-30T08:08:58.338Z,27.77
2019-04-30T08:10:01.816Z,28.05
2019-04-30T08:11:06.068Z,25.27
2019-04-30T08:12:11.600Z,27.90
2019-04-30T08:13:16.821Z,26.30
2019-04-30T08:14:24.352Z,25.90
2019-04-30T08:15:29.454Z,29.35
2019-04-30T08:16:33.528Z,25.32
2019-04-30T08:17:38.927Z,23.95
2019-04-30T08:18:43.265Z,25.23
2019-04-30T08:19:49.002Z,23.75
2019-04-30T08:20:53.431Z,28.05
2019-04-30T08:21:58.570Z,25.70
2019-04-30T08:23:13.336Z,28.12
2019-04-30T08:24:09.275Z,26.25
2019-04-30T08:25:13.718Z,27.47
2019-04-30T08:26:18.866Z,25.63
2019-04-30T08:27:23.271Z,24.00
2019-04-30T08:28:30.192Z,25.70
2019-04-30T08:29:33.417Z,24.30
2019-04-30T08:30:39.151Z,24.70
2019-04-30T08:31:43.676Z,22.00
2019-04-30T08:32:49.784Z,25.57
2019-04-30T08:33:54.817Z,23.80
2019-04-30T08:35:00.960Z,22.00
2019-04-30T08:36:04.910Z,23.55
2019-04-30T08:37:17.035Z,23.98
2019-04-30T08:38:15.006Z,22.93
2019-04-30T08:39:19.716Z,24.10
2019-04-30T08:40:24.139Z,25.05
2019-04-30T08:41:29.254Z,24.45
2019-04-30T08:42:34.663Z,21.97
2019-04-30T08:43:39.607Z,24.18
2019-04-30T08:44:43.795Z,21.50
2019-04-30T08:45:48.827Z,18.35
2019-04-30T08:46:53.195Z,22.35
2019-04-30T08:47:58.999Z,23.70
2019-04-30T08:49:03.853Z,26.12
2019-04-30T08:50:09.760Z,23.45
2019-04-30T08:51:15.424Z,22.50
2019-04-30T08:52:20.056Z,24.87
2019-04-30T08:53:29.432Z,24.80
2019-04-30T08:54:30.694Z,24.72
2019-04-30T08:55:35.134Z,25.60
2019-04-30T08:56:39.316Z,24.37
2019-04-30T08:57:43.674Z,25.45
2019-04-30T08:58:49.095Z,25.62
2019-04-30T08:59:53.406Z,28.67
2019-04-30T09:00:58.801Z,30.70
2019-04-30T09:02:15.303Z,25.80
2019-04-30T09:03:09.411Z,27.15
2019-04-30T09:04:13.809Z,30.77
2019-04-30T09:05:28.159Z,25.03
2019-04-30T09:06:31.936Z,23.95
2019-04-30T09:07:36.115Z,23.67
2019-04-30T09:08:40.472Z,22.70
2019-04-30T09:09:45.134Z,24.37
2019-04-30T09:10:50.942Z,22.55
2019-04-30T09:11:55.944Z,22.42
2019-04-30T09:13:00.296Z,19.85
2019-04-30T09:14:04.482Z,20.72
2019-04-30T09:15:09.188Z,20.88
2019-04-30T09:16:13.787Z,21.70
2019-04-30T09:17:20.027Z,18.67
2019-04-30T09:18:24.470Z,24.10
2019-04-30T09:19:29.848Z,21.12
2019-04-30T09:20:34.340Z,24.40
2019-04-30T09:21:40.188Z,23.20
2019-04-30T09:22:44.490Z,23.62
2019-04-30T09:23:52.408Z,24.12
2019-04-30T09:24:54.647Z,24.07
2019-04-30T09:25:58.920Z,23.40
2019-04-30T09:27:04.351Z,24.10
2019-04-30T09:28:08.689Z,26.33
2019-04-30T09:29:13.215Z,24.90
2019-04-30T09:30:18.882Z,22.77
2019-04-30T09:31:23.332Z,24.10
2019-04-30T09:32:29.111Z,21.40
2019-04-30T09:33:33.470Z,23.92
2019-04-30T09:34:38.466Z,24.57
2019-04-30T09:35:42.933Z,21.40
2019-04-30T09:36:48.888Z,21.45
2019-04-30T09:37:59.782Z,20.12
2019-04-30T09:39:01.538Z,20.50
2019-04-30T09:40:16.249Z,16.45
2019-04-30T09:41:13.682Z,21.40
2019-04-30T09:42:19.465Z,21.97
2019-04-30T09:43:25.158Z,20.30
2019-04-30T09:44:30.965Z,22.10
2019-04-30T09:45:35.342Z,22.20
2019-04-30T09:46:39.588Z,24.67
2019-04-30T09:47:44.391Z,21.00
2019-04-30T09:48:50.679Z,24.77
2019-04-30T09:49:54.745Z,20.50
2019-04-30T09:51:00.654Z,24.25
2019-04-30T09:52:05.055Z,18.00
2019-04-30T09:53:10.522Z,17.63
2019-04-30T09:54:19.683Z,21.70
2019-04-30T09:55:20.948Z,18.25
2019-04-30T09:56:25.221Z,22.40
2019-04-30T09:57:29.691Z,19.98
2019-04-30T09:58:34.884Z,18.02
2019-04-30T09:59:39.215Z,25.08
2019-04-30T10:00:43.771Z,24.87
2019-04-30T10:01:48.113Z,23.18
2019-04-30T10:02:52.293Z,22.60
2019-04-30T10:03:57.466Z,19.20
2019-04-30T10:05:05.528Z,18.02
2019-04-30T10:06:10.172Z,17.57
2019-04-30T10:07:14.472Z,17.50
2019-04-30T10:08:20.759Z,18.23
2019-04-30T10:09:24.931Z,23.45
2019-04-30T10:10:30.820Z,20.07
2019-04-30T10:11:36.762Z,17.48
2019-04-30T10:12:41.513Z,17.00
2019-04-30T10:13:45.786Z,18.20
2019-04-30T10:14:51.003Z,15.25
2019-04-30T10:15:59.747Z,16.87
2019-04-30T10:17:30.711Z,19.74
2019-04-30T10:18:43.021Z,16.50
2019-04-30T10:19:49.041Z,16.30
2019-04-30T10:20:53.188Z,18.05
2019-04-30T10:21:58.999Z,16.70
2019-04-30T10:23:03.555Z,15.90
2019-04-30T10:24:13.051Z,15.00
2019-04-30T10:25:13.746Z,13.00
2019-04-30T10:26:17.912Z,14.97
2019-04-30T10:27:22.932Z,13.27
2019-04-30T10:28:45.105Z,15.88
2019-04-30T10:29:49.962Z,13.43
2019-04-30T10:30:54.227Z,11.48
2019-04-30T10:31:58.827Z,12.33
2019-04-30T10:33:03.100Z,10.85
2019-04-30T10:34:07.339Z,10.90
2019-04-30T10:35:11.516Z,9.60
2019-04-30T10:36:15.814Z,9.63
2019-04-30T10:37:19.997Z,12.93
2019-04-30T10:38:24.240Z,9.28
2019-04-30T10:39:29.675Z,10.28
2019-04-30T10:40:34.138Z,10.90
2019-04-30T10:41:39.507Z,12.15
2019-04-30T10:42:43.808Z,10.40
2019-04-30T10:43:49.200Z,9.73
2019-04-30T10:44:53.592Z,10.58
2019-04-30T10:45:58.590Z,9.78
2019-04-30T10:47:03.058Z,12.37
2019-04-30T10:48:07.309Z,11.30
2019-04-30T10:49:11.839Z,13.40
2019-04-30T10:50:16.607Z,10.97
2019-04-30T10:51:20.870Z,12.97
2019-04-30T10:52:25.060Z,13.95
2019-04-30T10:53:29.297Z,9.23
2019-04-30T10:54:33.996Z,9.85
2019-04-30T10:55:39.397Z,14.45
2019-04-30T10:56:43.712Z,9.03
2019-04-30T10:57:49.564Z,10.35
2019-04-30T10:58:53.773Z,10.95
2019-04-30T10:59:58.694Z,20.70
2019-04-30T11:01:03.100Z,18.80
2019-04-30T11:02:09.048Z,14.75
2019-04-30T11:03:19.978Z,10.37
2019-04-30T11:04:20.992Z,11.07
2019-04-30T11:05:25.229Z,10.93
2019-04-30T11:06:29.531Z,9.88
2019-04-30T11:07:33.707Z,11.05
2019-04-30T11:08:37.895Z,11.05
2019-04-30T11:09:42.132Z,9.73
2019-04-30T11:10:46.577Z,11.48
2019-04-30T11:11:50.867Z,12.35
2019-04-30T11:12:55.045Z,10.65
2019-04-30T11:13:59.360Z,14.70
2019-04-30T11:15:06.337Z,14.38
2019-04-30T11:16:15.177Z,15.30
2019-04-30T11:17:16.864Z,10.80
2019-04-30T11:18:21.613Z,10.26
2019-04-30T11:19:26.125Z,9.98
2019-04-30T11:20:30.640Z,13.65
2019-04-30T11:21:35.173Z,11.35
2019-04-30T11:22:39.716Z,12.68
2019-04-30T11:23:44.324Z,10.93
2019-04-30T11:24:59.137Z,10.20
2019-04-30T11:25:54.990Z,9.90
2019-04-30T11:27:01.661Z,10.03
2019-04-30T11:28:06.878Z,10.20
2019-04-30T11:29:12.580Z,11.40
2019-04-30T11:30:21.349Z,9.00
2019-04-30T11:31:24.856Z,9.00
2019-04-30T11:32:29.452Z,9.55
2019-04-30T11:33:34.138Z,12.10
2019-04-30T11:34:38.808Z,11.05
2019-04-30T11:35:42.987Z,10.35
2019-04-30T11:36:47.233Z,9.45
2019-04-30T11:37:51.415Z,10.38
2019-04-30T11:38:55.746Z,9.93
2019-04-30T11:40:00.102Z,13.13
2019-04-30T11:41:04.415Z,11.83
2019-04-30T11:42:08.744Z,12.43
2019-04-30T11:43:12.911Z,14.07
2019-04-30T11:44:30.619Z,11.43
2019-04-30T11:45:45.772Z,11.83
2019-04-30T11:46:59.737Z,10.93
2019-04-30T11:48:04.420Z,11.28
2019-04-30T11:49:09.651Z,11.20
2019-04-30T11:50:14.009Z,10.70
2019-04-30T11:51:19.424Z,11.80
2019-04-30T11:52:23.870Z,10.90
2019-04-30T11:53:30.637Z,9.78
2019-04-30T11:54:33.928Z,13.30
2019-04-30T11:55:39.045Z,11.28
2019-04-30T11:56:43.339Z,12.05
2019-04-30T11:57:49.416Z,11.55
2019-04-30T11:58:53.764Z,12.33
2019-04-30T11:59:57.953Z,14.87
2019-04-30T12:01:02.435Z,13.35
2019-04-30T12:02:08.253Z,12.60
2019-04-30T12:03:12.522Z,11.87
2019-04-30T12:04:16.751Z,11.63
2019-04-30T12:05:20.969Z,10.10
2019-04-30T12:06:25.165Z,10.98
2019-04-30T12:07:33.964Z,11.35
2019-04-30T12:08:55.892Z,12.85
2019-04-30T12:10:19.458Z,12.50
2019-04-30T12:11:41.251Z,12.50
2019-04-30T12:12:46.025Z,13.23
2019-04-30T12:13:50.203Z,10.95
2019-04-30T12:14:54.476Z,13.80
2019-04-30T12:15:59.094Z,13.18
2019-04-30T12:17:03.322Z,14.80
2019-04-30T12:18:07.507Z,10.85
2019-04-30T12:19:11.696Z,11.17
2019-04-30T12:20:16.150Z,12.33
2019-04-30T12:21:20.357Z,11.80
2019-04-30T12:22:24.534Z,11.43
2019-04-30T12:23:28.823Z,10.72
2019-04-30T12:24:33.008Z,11.65
2019-04-30T12:25:38.813Z,11.93
2019-04-30T12:26:43.210Z,13.48
2019-04-30T12:27:48.782Z,11.20
2019-04-30T12:28:53.255Z,12.10
2019-04-30T12:29:59.334Z,11.08
2019-04-30T12:31:05.789Z,13.93
2019-04-30T12:32:09.215Z,12.10
2019-04-30T12:33:13.403Z,13.03
2019-04-30T12:34:19.269Z,11.70
2019-04-30T12:35:23.524Z,12.67
2019-04-30T12:36:28.922Z,10.45
2019-04-30T12:37:33.648Z,12.05
2019-04-30T12:38:38.100Z,13.38
2019-04-30T12:39:42.278Z,11.50
2019-04-30T12:40:46.571Z,12.93
2019-04-30T12:41:50.749Z,12.93
2019-04-30T12:42:54.936Z,10.20
2019-04-30T12:43:59.142Z,12.65
2019-04-30T12:45:07.214Z,10.04
2019-04-30T12:46:11.428Z,10.37
2019-04-30T12:47:15.737Z,9.10
2019-04-30T12:48:21.554Z,10.50
2019-04-30T12:49:25.805Z,10.90
2019-04-30T12:50:31.804Z,12.33
2019-04-30T12:51:45.551Z,9.45
2019-04-30T12:53:03.075Z,13.05
2019-04-30T12:54:11.821Z,10.75
2019-04-30T12:55:32.568Z,10.10
2019-04-30T12:56:55.589Z,9.65
2019-04-30T12:58:01.743Z,9.43
2019-04-30T12:59:05.897Z,10.50
2019-04-30T13:00:11.622Z,9.30
2019-04-30T13:01:16.043Z,10.17
2019-04-30T13:02:20.257Z,9.87
2019-04-30T13:03:24.768Z,9.40
2019-04-30T13:04:29.472Z,10.70
2019-04-30T13:05:33.722Z,9.20
2019-04-30T13:06:38.501Z,7.75
2019-04-30T13:07:43.502Z,9.45
2019-04-30T13:08:51.665Z,10.30
2019-04-30T13:09:54.919Z,7.17
2019-04-30T13:10:59.864Z,7.37
2019-04-30T13:12:05.142Z,7.92
2019-04-30T13:13:10.400Z,8.33
2019-04-30T13:14:15.580Z,8.40
2019-04-30T13:15:20.272Z,7.13
2019-04-30T13:16:24.514Z,9.98
2019-04-30T13:17:29.007Z,8.70
2019-04-30T13:18:33.248Z,8.43
2019-04-30T13:19:37.507Z,8.38
2019-04-30T13:20:41.759Z,11.43
2019-04-30T13:21:46.766Z,8.58
2019-04-30T13:22:51.048Z,8.38
2019-04-30T13:23:56.820Z,10.13
2019-04-30T13:25:01.345Z,8.95
2019-04-30T13:26:05.581Z,7.62
2019-04-30T13:27:09.759Z,7.30
2019-04-30T13:28:18.315Z,8.13
2019-04-30T13:29:24.221Z,6.90
2019-04-30T13:30:30.226Z,7.80
2019-04-30T13:31:34.476Z,11.70
2019-04-30T13:32:40.340Z,7.33
2019-04-30T13:33:46.800Z,8.08
2019-04-30T13:34:53.555Z,8.98
2019-04-30T13:35:58.813Z,7.60
2019-04-30T13:37:03.078Z,6.58
2019-04-30T13:38:14.628Z,8.08
2019-04-30T13:39:27.093Z,8.13
2019-04-30T13:40:33.539Z,7.12
2019-04-30T13:41:46.286Z,9.73
2019-04-30T13:42:52.161Z,7.60
2019-04-30T13:43:58.752Z,7.75
2019-04-30T13:45:06.357Z,7.50
2019-04-30T13:46:10.602Z,8.80
2019-04-30T13:47:14.774Z,8.83
2019-04-30T13:48:19.727Z,8.80
2019-04-30T13:49:24.077Z,6.65
2019-04-30T13:50:29.251Z,7.22
2019-04-30T13:51:33.596Z,7.92
2019-04-30T13:52:38.931Z,10.15
2019-04-30T13:53:43.284Z,8.13
2019-04-30T13:54:47.516Z,7.53
2019-04-30T13:55:51.731Z,7.62
2019-04-30T13:56:55.907Z,7.53
2019-04-30T13:58:00.237Z,10.30
2019-04-30T13:59:04.680Z,7.75
2019-04-30T14:00:12.199Z,6.95
2019-04-30T14:01:16.746Z,6.53
2019-04-30T14:02:20.959Z,9.47
2019-04-30T14:03:32.726Z,8.25
2019-04-30T14:04:41.446Z,8.45
2019-04-30T14:05:45.621Z,6.87
2019-04-30T14:07:03.386Z,6.83
2019-04-30T14:08:11.723Z,8.15
2019-04-30T14:09:17.607Z,6.73
2019-04-30T14:10:21.841Z,6.77
2019-04-30T14:11:25.967Z,6.50
2019-04-30T14:12:31.856Z,7.47